Flight Track Log - Related Links

Times and Time Zones

All times are in EDT time to prevent confusion due to time zone crossing. See the EJA831 flight status page for this flight to view local times or setup timezone preferences in your user account.

Time Position Orientation Groundspeed Altitude Reporting Facility
EDT Latitude Longitude Course Direction KTS MPH feet Rate Location/Type
Tue 04:43:22 PM 35.0278 -80.6119 37° Northeast 149 171 1,400  Level Atlanta Center
Tue 04:45:29 PM 35.1336 -80.5161 37° Northeast 272 313 7,000 2,021 Climbing Atlanta Center
Tue 04:46:29 PM 35.1967 -80.4628 35° Northeast 272 313 7,700 2,288 Climbing Atlanta Center
Tue 04:48:09 PM 35.2683 -80.3008 62° Northeast 303 349 13,100 2,850 Climbing Washington Center
Tue 04:49:09 PM 35.3103 -80.1914 65° Northeast 334 384 15,300 2,380 Climbing Washington Center
Tue 04:50:10 PM 35.3564 -80.0769 64° Northeast 354 407 17,900 2,400 Climbing Washington Center
Tue 04:51:09 PM 35.3972 -79.9822 62° Northeast 359 413 20,100 2,400 Climbing Washington Center
Tue 04:52:10 PM 35.4431 -79.8700 63° Northeast 359 413 22,700 1,537 Climbing Washington Center
Tue 04:53:10 PM 35.4869 -79.7550 65° Northeast 359 413 23,200 1,500 Climbing Washington Center
Tue 04:54:10 PM 35.5347 -79.6375 63° Northeast 365 420 25,700 2,550 Climbing Washington Center
Tue 04:55:10 PM 35.5872 -79.5025 64° Northeast 385 443 28,300 1,950 Climbing Washington Center
Tue 04:56:10 PM 35.6303 -79.3972 63° Northeast 385 443 29,600 850 Climbing Washington Center
Tue 04:57:10 PM 35.6822 -79.2717 63° Northeast 392 451 30,000 200 Climbing Washington Center
Tue 04:58:10 PM 35.7319 -79.1436 64° Northeast 398 458 30,000  Level Washington Center
Tue 04:59:10 PM 35.7836 -79.0153 64° Northeast 404 465 30,000  Level Washington Center
Tue 05:00:10 PM 35.8331 -78.8894 64° Northeast 404 465 30,000  Level Washington Center
Tue 05:01:10 PM 35.8764 -78.7553 68° East 404 465 30,000  Level Washington Center
Tue 05:02:10 PM 35.8953 -78.5944 82° East 411 473 30,000  Level Washington Center
Tue 05:03:10 PM 35.9094 -78.4411 83° East 435 501 30,000  Level Washington Center
Tue 05:04:10 PM 35.9256 -78.2828 83° East 454 522 30,000  Level Washington Center
Tue 05:05:10 PM 35.9394 -78.1217 84° East 468 539 30,000 -400 Level Washington Center
Tue 05:06:10 PM 35.9553 -77.9681 83° East 463 533 29,200 -500 Descending Washington Center
Tue 05:07:10 PM 35.9686 -77.8144 84° East 458 527 29,000 -100 Descending Washington Center
Tue 05:08:10 PM 36.0047 -77.6642 73° East 453 521 29,000  Level Washington Center
Tue 05:09:10 PM 36.0753 -77.5503 53° Northeast 424 488 29,000  Level Washington Center
Tue 05:10:10 PM 36.1461 -77.4311 54° Northeast 419 482 29,000  Level Washington Center
Tue 05:11:10 PM 36.2167 -77.3194 52° Northeast 414 476 29,000  Level Washington Center
Tue 05:12:10 PM 36.2850 -77.2050 53° Northeast 414 476 29,000  Level Washington Center
Tue 05:13:10 PM 36.3553 -77.0931 52° Northeast 409 471 29,000  Level Washington Center
Tue 05:14:10 PM 36.4214 -76.9806 54° Northeast 404 465 29,000  Level Washington Center
Tue 05:15:10 PM 36.4914 -76.8656 53° Northeast 404 465 29,000  Level Washington Center
Tue 05:16:10 PM 36.5594 -76.7581 52° Northeast 404 465 29,000  Level Washington Center
Tue 05:17:10 PM 36.6272 -76.6453 53° Northeast 399 459 29,000  Level Washington Center
Tue 05:18:10 PM 36.6947 -76.5347 53° Northeast 399 459 29,000  Level Washington Center
Tue 05:19:10 PM 36.7603 -76.4189 55° Northeast 404 465 29,000  Level Washington Center
Tue 05:20:10 PM 36.8278 -76.3081 53° Northeast 404 465 29,000  Level Washington Center
Tue 05:21:10 PM 36.8950 -76.2047 51° Northeast 398 458 29,000  Level Washington Center
Tue 05:22:10 PM 36.9767 -76.1561 25° Northeast 359 413 29,000  Level Washington Center
Tue 05:23:09 PM 37.0811 -76.1047 21° North 354 407 29,000  Level Washington Center
Tue 05:24:10 PM 37.1733 -76.0558 23° Northeast 354 407 29,000 -595 Level Washington Center
Tue 05:25:10 PM 37.2611 -75.9989 27° Northeast 354 407 27,800 -1,412 Descending Washington Center
Tue 05:26:09 PM 37.3489 -75.9419 27° Northeast 354 407 26,200 -1,400 Descending Washington Center
Tue 05:27:10 PM 37.4367 -75.8847 27° Northeast 349 402 25,000 -600 Descending Washington Center
Tue 05:28:09 PM 37.5306 -75.8222 28° Northeast 355 409 25,000 -353 Level Washington Center
Tue 05:29:09 PM 37.6225 -75.7650 26° Northeast 362 417 24,300 -1,041 Descending Washington Center
Tue 05:30:10 PM 37.7122 -75.7019 29° Northeast 362 417 22,900 -1,400 Descending Washington Center
Tue 05:31:09 PM 37.8039 -75.6392 28° Northeast 367 422 21,500 -1,412 Descending Washington Center
Tue 05:32:09 PM 37.8958 -75.5811 26° Northeast 367 422 20,100 -1,250 Descending Washington Center
Tue 05:33:09 PM 37.9833 -75.5181 30° Northeast 367 422 19,000 -550 Descending Washington Center
Tue 05:34:09 PM 38.0689 -75.4600 28° Northeast 362 417 19,000  Level Washington Center
Tue 05:35:10 PM 38.1564 -75.4042 27° Northeast 351 404 19,000  Level Washington Center
Tue 05:36:10 PM 38.2458 -75.3458 27° Northeast 346 398 19,000 -500 Level Washington Center
Tue 05:37:10 PM 38.3250 -75.2928 28° Northeast 346 398 18,000 -1,450 Descending Washington Center
Tue 05:38:10 PM 38.4125 -75.2392 26° Northeast 346 398 16,100 -1,850 Descending Washington Center
Tue 05:39:10 PM 38.4978 -75.1831 27° Northeast 346 398 14,300 -1,750 Descending Washington Center
Tue 05:40:10 PM 38.5808 -75.1350 24° Northeast 341 392 12,600 -1,650 Descending Washington Center
Tue 05:41:10 PM 38.6619 -75.0811 27° Northeast 336 387 11,000 -800 Descending Washington Center
Tue 05:42:10 PM 38.7411 -75.0328 25° Northeast 326 375 11,000 -555 Level Washington Center
Tue 05:43:09 PM 38.8178 -74.9842 26° Northeast 314 361 9,900 -1,485 Descending Washington Center
Tue 05:43:51 PM 38.8719 -74.9436 30° Northeast 303 349 8,500 -1,574 Descending Washington Center
Tue 05:44:10 PM 38.8906 -74.9356 19° North 302 348 8,300 -608 Descending Washington Center
Tue 05:45:10 PM 38.9550 -74.8922 28° Northeast 278 320 7,700 -950 Descending Washington Center
Tue 05:46:10 PM 39.0214 -74.8517 25° Northeast 260 299 6,400 -1,250 Descending Washington Center
Tue 05:47:10 PM 39.0858 -74.8108 26° Northeast 260 299 5,200 -1,403 Descending Washington Center
Tue 05:47:27 PM 39.1086 -74.7944 29° Northeast 258 297 4,600 -1,200 Descending Washington Center
Tue 05:48:10 PM 39.1500 -74.7672 27° Northeast 260 299 4,000 -932 Descending Washington Center
Tue 05:49:10 PM 39.1933 -74.6892 54° Northeast 242 278 3,000 -500 Descending Washington Center
Tue 05:50:10 PM 39.2261 -74.6136 61° Northeast 237 273 3,000  Level Washington Center
Tue 05:51:10 PM 39.2358 -74.5411 80° East 217 250 3,000 -77 Level Washington Center
Tue 05:51:28 PM 39.2397 -74.5222 75° East 197 227 2,900  Descending Washington Center
Tue 05:52:10 PM 39.2436 -74.4714 84° East 201 231 3,000 143 Climbing Washington Center

Login

Don't have an account? Register now (free) for customized features, flight alerts, and more!